createdAt,value
2023-08-29T00:00:26.457Z,14.35
2023-08-29T00:01:26.599Z,14.35
2023-08-29T00:02:25.692Z,14.31
2023-08-29T00:03:25.867Z,14.30
2023-08-29T00:04:25.963Z,14.31
2023-08-29T00:05:26.149Z,14.31
2023-08-29T00:06:26.332Z,14.30
2023-08-29T00:07:26.470Z,14.30
2023-08-29T00:08:25.599Z,14.30
2023-08-29T00:09:25.819Z,14.30
2023-08-29T00:10:25.990Z,14.30
2023-08-29T00:11:26.157Z,14.27
2023-08-29T00:12:26.403Z,14.26
2023-08-29T00:13:25.465Z,14.24
2023-08-29T00:14:25.661Z,14.23
2023-08-29T00:15:25.800Z,14.24
2023-08-29T00:16:26.048Z,14.23
2023-08-29T00:17:26.136Z,14.20
2023-08-29T00:18:26.264Z,14.20
2023-08-29T00:19:25.452Z,14.19
2023-08-29T00:20:25.552Z,14.19
2023-08-29T00:21:25.725Z,14.17
2023-08-29T00:22:25.875Z,14.17
2023-08-29T00:23:26.105Z,14.17
2023-08-29T00:24:26.147Z,14.20
2023-08-29T00:25:25.262Z,14.20
2023-08-29T00:26:25.453Z,14.21
2023-08-29T00:27:25.681Z,14.23
2023-08-29T00:28:25.791Z,14.20
2023-08-29T00:29:25.963Z,14.20
2023-08-29T00:30:26.122Z,14.20
2023-08-29T00:31:25.271Z,14.23
2023-08-29T00:32:25.484Z,14.24
2023-08-29T00:33:25.627Z,14.24
2023-08-29T00:34:25.756Z,14.27
2023-08-29T00:35:25.917Z,14.30
2023-08-29T00:36:26.985Z,14.29
2023-08-29T00:37:25.139Z,14.27
2023-08-29T00:38:25.288Z,14.26
2023-08-29T00:39:25.488Z,14.29
2023-08-29T00:40:26.568Z,14.27
2023-08-29T00:41:25.742Z,14.27
2023-08-29T00:42:25.907Z,14.30
2023-08-29T00:43:26.023Z,14.27
2023-08-29T00:44:25.155Z,14.30
2023-08-29T00:45:25.304Z,14.31
2023-08-29T00:46:25.500Z,14.34
2023-08-29T00:47:25.637Z,14.35
2023-08-29T00:48:25.767Z,14.35
2023-08-29T00:49:25.882Z,14.35
2023-08-29T00:50:25.022Z,14.36
2023-08-29T00:51:25.129Z,14.38
2023-08-29T00:52:25.263Z,14.36
2023-08-29T00:53:25.439Z,14.38
2023-08-29T00:54:25.583Z,14.35
2023-08-29T00:55:25.704Z,14.31
2023-08-29T00:56:25.849Z,14.30
2023-08-29T00:57:24.942Z,14.27
2023-08-29T00:58:25.169Z,14.30
2023-08-29T00:59:25.291Z,14.30
2023-08-29T01:00:25.457Z,14.31
2023-08-29T01:01:25.635Z,14.27
2023-08-29T01:02:25.822Z,14.24
2023-08-29T01:03:25.018Z,14.21
2023-08-29T01:04:25.101Z,14.23
2023-08-29T01:05:25.263Z,14.24
2023-08-29T01:06:25.422Z,14.24
2023-08-29T01:07:25.593Z,14.26
2023-08-29T01:08:24.874Z,14.27
2023-08-29T01:09:24.922Z,14.27
2023-08-29T01:10:25.122Z,14.27
2023-08-29T01:11:25.272Z,14.26
2023-08-29T01:12:25.456Z,14.24
2023-08-29T01:13:25.562Z,14.24
2023-08-29T01:14:25.722Z,14.23
2023-08-29T01:15:24.933Z,14.24
2023-08-29T01:16:25.187Z,14.17
2023-08-29T01:17:25.252Z,14.24
2023-08-29T01:18:25.402Z,14.29
2023-08-29T01:19:25.549Z,14.29
2023-08-29T01:20:24.657Z,14.27
2023-08-29T01:21:24.870Z,14.29
2023-08-29T01:22:24.964Z,14.30
2023-08-29T01:23:25.117Z,14.34
2023-08-29T01:24:25.317Z,14.30
2023-08-29T01:25:25.453Z,14.34
2023-08-29T01:26:24.599Z,14.34
2023-08-29T01:27:24.796Z,14.31
2023-08-29T01:28:24.983Z,14.34
2023-08-29T01:29:25.186Z,14.34
2023-08-29T01:30:25.297Z,14.30
2023-08-29T01:31:24.448Z,14.31
2023-08-29T01:32:24.636Z,14.30
2023-08-29T01:33:24.816Z,14.30
2023-08-29T01:34:24.995Z,14.30
2023-08-29T01:35:25.228Z,14.31
2023-08-29T01:36:25.322Z,14.30
2023-08-29T01:37:24.454Z,14.29
2023-08-29T01:38:24.668Z,14.29
2023-08-29T01:39:24.832Z,14.34
2023-08-29T01:40:25.040Z,14.36
2023-08-29T01:41:25.176Z,14.36
2023-08-29T01:42:24.314Z,14.38
2023-08-29T01:43:24.497Z,14.41
2023-08-29T01:44:24.678Z,14.41
2023-08-29T01:45:25.053Z,14.42
2023-08-29T01:46:25.207Z,14.42
2023-08-29T01:47:25.266Z,14.44
2023-08-29T01:48:24.297Z,14.42
2023-08-29T01:49:24.478Z,14.39
2023-08-29T01:50:24.694Z,14.39
2023-08-29T01:51:24.791Z,14.36
2023-08-29T01:52:24.939Z,14.35
2023-08-29T01:53:25.064Z,14.31
2023-08-29T01:54:24.199Z,14.30
2023-08-29T01:55:25.306Z,14.30
2023-08-29T01:56:24.582Z,14.31
2023-08-29T01:57:24.724Z,14.30
2023-08-29T01:58:24.895Z,14.31
2023-08-29T01:59:24.134Z,14.31
2023-08-29T02:00:24.257Z,14.31
2023-08-29T02:01:24.586Z,14.31
2023-08-29T02:02:24.681Z,14.34
2023-08-29T02:03:25.321Z,14.36
2023-08-29T02:04:24.025Z,14.38
2023-08-29T02:05:24.109Z,14.38
2023-08-29T02:06:25.241Z,14.36
2023-08-29T02:07:25.393Z,14.39
2023-08-29T02:08:25.567Z,14.41
2023-08-29T02:09:24.811Z,14.39
2023-08-29T02:10:23.966Z,14.42
2023-08-29T02:11:25.092Z,14.41
2023-08-29T02:12:24.329Z,14.41
2023-08-29T02:13:24.538Z,14.42
2023-08-29T02:14:24.703Z,14.44
2023-08-29T02:15:24.784Z,14.44
2023-08-29T02:16:24.082Z,14.42
2023-08-29T02:17:24.237Z,14.42
2023-08-29T02:18:25.357Z,14.42
2023-08-29T02:19:25.483Z,14.42
2023-08-29T02:20:24.758Z,14.42
2023-08-29T02:21:23.885Z,14.41
2023-08-29T02:22:25.012Z,14.38
2023-08-29T02:23:24.313Z,14.31
2023-08-29T02:24:24.402Z,14.34
2023-08-29T02:25:24.632Z,14.31
2023-08-29T02:26:24.678Z,14.29
2023-08-29T02:27:23.888Z,14.29
2023-08-29T02:28:25.031Z,14.26
2023-08-29T02:29:24.290Z,14.24
2023-08-29T02:30:26.271Z,14.23
2023-08-29T02:31:23.805Z,14.23
2023-08-29T02:32:23.938Z,14.24
2023-08-29T02:33:23.965Z,14.21
2023-08-29T02:34:24.106Z,14.20
2023-08-29T02:35:24.272Z,14.20
2023-08-29T02:36:24.418Z,14.17
2023-08-29T02:37:23.568Z,14.16
2023-08-29T02:38:23.739Z,14.11
2023-08-29T02:39:23.914Z,14.09
2023-08-29T02:40:24.070Z,14.05
2023-08-29T02:41:24.253Z,14.02
2023-08-29T02:42:24.419Z,14.01
2023-08-29T02:43:24.506Z,13.98
2023-08-29T02:44:23.781Z,13.93
2023-08-29T02:45:23.934Z,13.93
2023-08-29T02:46:24.157Z,13.93
2023-08-29T02:47:24.280Z,13.96
2023-08-29T02:48:23.424Z,13.94
2023-08-29T02:49:23.568Z,13.94
2023-08-29T02:50:23.761Z,13.91
2023-08-29T02:51:23.913Z,13.91
2023-08-29T02:52:24.069Z,13.87
2023-08-29T02:53:24.204Z,13.90
2023-08-29T02:54:23.324Z,13.87
2023-08-29T02:55:23.521Z,13.88
2023-08-29T02:56:23.698Z,13.86
2023-08-29T02:57:23.877Z,13.84
2023-08-29T02:58:24.005Z,13.80
2023-08-29T02:59:24.203Z,13.83
2023-08-29T03:00:23.328Z,13.81
2023-08-29T03:01:23.464Z,13.80
2023-08-29T03:02:23.674Z,13.81
2023-08-29T03:03:23.901Z,13.79
2023-08-29T03:04:24.001Z,13.79
2023-08-29T03:05:23.220Z,13.76
2023-08-29T03:06:23.359Z,13.79
2023-08-29T03:07:23.534Z,13.79
2023-08-29T03:08:24.671Z,13.76
2023-08-29T03:09:23.875Z,13.76
2023-08-29T03:10:24.103Z,13.76
2023-08-29T03:11:23.220Z,13.76
2023-08-29T03:12:23.398Z,13.75
2023-08-29T03:13:24.600Z,13.75
2023-08-29T03:14:23.737Z,13.73
2023-08-29T03:15:23.936Z,13.75
2023-08-29T03:16:23.130Z,13.73
2023-08-29T03:17:23.364Z,13.73
2023-08-29T03:18:24.388Z,13.72
2023-08-29T03:19:23.601Z,13.73
2023-08-29T03:20:23.782Z,13.69
2023-08-29T03:21:23.890Z,13.68
2023-08-29T03:22:23.133Z,13.66
2023-08-29T03:23:24.280Z,13.68
2023-08-29T03:24:23.513Z,13.68
2023-08-29T03:25:23.706Z,13.66
2023-08-29T03:26:23.816Z,13.65
2023-08-29T03:27:23.021Z,13.63
2023-08-29T03:28:24.260Z,13.63
2023-08-29T03:29:23.393Z,13.63
2023-08-29T03:30:23.577Z,13.65
2023-08-29T03:31:24.723Z,13.63
2023-08-29T03:32:23.022Z,13.62
2023-08-29T03:33:24.280Z,13.61
2023-08-29T03:34:23.313Z,13.61
2023-08-29T03:35:24.437Z,13.61
2023-08-29T03:36:23.717Z,13.61
2023-08-29T03:37:22.821Z,13.57
2023-08-29T03:38:23.032Z,13.57
2023-08-29T03:39:23.249Z,13.59
2023-08-29T03:40:24.427Z,13.57
2023-08-29T03:41:23.687Z,13.54
2023-08-29T03:42:22.839Z,13.55
2023-08-29T03:43:23.506Z,13.54
2023-08-29T03:44:24.139Z,13.55
2023-08-29T03:45:23.342Z,13.55
2023-08-29T03:46:23.586Z,13.51
2023-08-29T03:47:22.712Z,13.50
2023-08-29T03:48:28.934Z,13.46
2023-08-29T03:49:24.090Z,13.44
2023-08-29T03:50:24.230Z,13.44
2023-08-29T03:51:23.459Z,13.44
2023-08-29T03:52:23.597Z,13.43
2023-08-29T03:53:22.811Z,13.44
2023-08-29T03:54:23.051Z,13.46
2023-08-29T03:55:23.224Z,13.43
2023-08-29T03:56:24.384Z,13.47
2023-08-29T03:57:22.597Z,13.47
2023-08-29T03:58:22.821Z,13.46
2023-08-29T03:59:23.032Z,13.47
2023-08-29T04:00:23.196Z,13.46
2023-08-29T04:01:22.415Z,13.46
2023-08-29T04:02:22.575Z,13.48
2023-08-29T04:03:23.858Z,13.47
2023-08-29T04:04:24.279Z,13.47
2023-08-29T04:05:24.183Z,13.46
2023-08-29T04:06:24.326Z,13.48
2023-08-29T04:07:22.555Z,13.48
2023-08-29T04:08:22.655Z,13.50
2023-08-29T04:09:23.834Z,13.47
2023-08-29T04:10:23.064Z,13.51
2023-08-29T04:11:23.215Z,13.54
2023-08-29T04:12:22.420Z,13.53
2023-08-29T04:13:22.645Z,13.53
2023-08-29T04:14:24.737Z,13.51
2023-08-29T04:15:22.936Z,13.54
2023-08-29T04:16:23.248Z,13.54
2023-08-29T04:17:23.262Z,13.57
2023-08-29T04:18:22.497Z,13.54
2023-08-29T04:19:22.694Z,13.55
2023-08-29T04:20:23.862Z,13.55
2023-08-29T04:21:24.091Z,13.54
2023-08-29T04:22:22.263Z,13.55
2023-08-29T04:23:23.426Z,13.54
2023-08-29T04:24:23.608Z,13.51
2023-08-29T04:25:23.757Z,13.51
2023-08-29T04:26:23.930Z,13.51
2023-08-29T04:27:23.069Z,13.51
2023-08-29T04:28:23.244Z,13.50
2023-08-29T04:29:23.463Z,13.47
2023-08-29T04:30:23.620Z,13.47
2023-08-29T04:31:23.902Z,13.48
2023-08-29T04:32:21.984Z,13.50
2023-08-29T04:33:25.632Z,13.50
2023-08-29T04:34:23.325Z,13.50
2023-08-29T04:35:24.109Z,13.50
2023-08-29T04:36:22.910Z,13.51
2023-08-29T04:37:22.905Z,13.51
2023-08-29T04:38:23.006Z,13.51
2023-08-29T04:39:22.310Z,13.53
2023-08-29T04:40:23.383Z,13.53
2023-08-29T04:41:22.599Z,13.54
2023-08-29T04:42:22.790Z,13.54
2023-08-29T04:43:21.938Z,13.57
2023-08-29T04:44:22.106Z,13.59
2023-08-29T04:45:22.303Z,13.59
2023-08-29T04:46:22.415Z,13.62
2023-08-29T04:47:22.596Z,13.63
2023-08-29T04:48:21.798Z,13.65
2023-08-29T04:49:22.834Z,13.66
2023-08-29T04:50:22.068Z,13.68
2023-08-29T04:51:22.265Z,13.69
2023-08-29T04:52:22.485Z,13.69
2023-08-29T04:53:22.632Z,13.71
2023-08-29T04:54:21.790Z,13.73
2023-08-29T04:55:21.934Z,13.73
2023-08-29T04:56:23.071Z,13.75
2023-08-29T04:57:22.327Z,13.79
2023-08-29T04:58:22.566Z,13.80
2023-08-29T04:59:22.684Z,13.81
2023-08-29T05:00:21.884Z,13.79
2023-08-29T05:01:22.141Z,13.81
2023-08-29T05:02:22.344Z,13.81
2023-08-29T05:03:22.475Z,13.84
2023-08-29T05:04:21.602Z,13.84
2023-08-29T05:05:21.782Z,13.87
2023-08-29T05:06:21.938Z,13.88
2023-08-29T05:07:22.945Z,13.90
2023-08-29T05:08:22.360Z,13.91
2023-08-29T05:09:21.506Z,13.93
2023-08-29T05:10:21.685Z,13.96
2023-08-29T05:11:21.886Z,13.93
2023-08-29T05:12:22.967Z,13.94
2023-08-29T05:13:23.129Z,13.93
2023-08-29T05:14:22.359Z,13.96
2023-08-29T05:15:22.457Z,13.94
2023-08-29T05:16:21.722Z,13.96
2023-08-29T05:17:21.856Z,13.98
2023-08-29T05:18:22.039Z,13.96
2023-08-29T05:19:23.163Z,13.98
2023-08-29T05:20:21.338Z,13.99
2023-08-29T05:21:22.475Z,13.96
2023-08-29T05:22:21.702Z,13.98
2023-08-29T05:23:22.833Z,13.98
2023-08-29T05:24:23.002Z,13.98
2023-08-29T05:25:23.235Z,13.99
2023-08-29T05:26:22.360Z,14.01
2023-08-29T05:27:22.618Z,14.04
2023-08-29T05:28:22.762Z,14.02
2023-08-29T05:29:22.112Z,14.02
2023-08-29T05:30:22.185Z,14.05
2023-08-29T05:31:21.403Z,14.02
2023-08-29T05:32:21.557Z,14.05
2023-08-29T05:33:21.783Z,14.05
2023-08-29T05:34:21.917Z,14.06
2023-08-29T05:35:22.095Z,14.06
2023-08-29T05:36:22.218Z,14.05
2023-08-29T05:37:22.398Z,14.06
2023-08-29T05:38:21.591Z,14.06
2023-08-29T05:39:22.763Z,14.05
2023-08-29T05:40:21.946Z,14.04
2023-08-29T05:41:21.104Z,14.05
2023-08-29T05:42:22.296Z,14.05
2023-08-29T05:43:21.548Z,14.06
2023-08-29T05:44:21.623Z,14.05
2023-08-29T05:45:21.814Z,14.04
2023-08-29T05:46:22.945Z,14.05
2023-08-29T05:47:21.140Z,14.05
2023-08-29T05:48:22.246Z,14.08
2023-08-29T05:49:21.481Z,14.09
2023-08-29T05:50:22.603Z,14.08
2023-08-29T05:51:21.871Z,14.08
2023-08-29T05:52:20.989Z,14.06
2023-08-29T05:53:21.171Z,14.04
2023-08-29T05:54:21.335Z,14.02
2023-08-29T05:55:21.526Z,14.02
2023-08-29T05:56:21.713Z,13.99
2023-08-29T05:57:21.068Z,13.99
2023-08-29T05:58:21.016Z,13.99
2023-08-29T05:59:22.164Z,13.99
2023-08-29T06:00:21.409Z,14.01
2023-08-29T06:01:21.554Z,14.02
2023-08-29T06:02:21.700Z,14.01
2023-08-29T06:03:23.184Z,14.02
2023-08-29T06:04:21.965Z,13.99
2023-08-29T06:05:22.195Z,13.99
2023-08-29T06:06:22.406Z,13.99
2023-08-29T06:07:21.563Z,14.01
2023-08-29T06:08:20.910Z,14.04
2023-08-29T06:09:20.873Z,14.02
2023-08-29T06:10:22.012Z,14.05
2023-08-29T06:11:21.255Z,14.02
2023-08-29T06:12:22.353Z,14.04
2023-08-29T06:13:21.561Z,14.05
2023-08-29T06:14:21.655Z,14.08
2023-08-29T06:15:21.864Z,14.09
2023-08-29T06:16:21.134Z,14.11
2023-08-29T06:17:21.298Z,14.12
2023-08-29T06:18:21.462Z,14.19
2023-08-29T06:19:20.652Z,14.17
2023-08-29T06:20:20.824Z,14.20
2023-08-29T06:21:21.019Z,14.20
2023-08-29T06:22:22.210Z,14.21
2023-08-29T06:23:21.364Z,14.21
2023-08-29T06:24:20.499Z,14.23
2023-08-29T06:25:20.655Z,14.24
2023-08-29T06:26:20.880Z,14.29
2023-08-29T06:27:21.040Z,14.27
2023-08-29T06:28:22.196Z,14.27
2023-08-29T06:29:21.374Z,14.29
2023-08-29T06:30:21.674Z,14.29
2023-08-29T06:31:22.714Z,14.29
2023-08-29T06:32:21.847Z,14.27
2023-08-29T06:33:21.017Z,14.27
2023-08-29T06:34:21.173Z,14.27
2023-08-29T06:35:21.302Z,14.26
2023-08-29T06:36:20.524Z,14.29
2023-08-29T06:37:20.701Z,14.29
2023-08-29T06:38:21.848Z,14.30
2023-08-29T06:39:22.014Z,14.29
2023-08-29T06:40:22.177Z,14.29
2023-08-29T06:41:20.348Z,14.29
2023-08-29T06:42:20.547Z,14.34
2023-08-29T06:43:21.801Z,14.36
2023-08-29T06:44:20.855Z,14.35
2023-08-29T06:45:21.017Z,14.35
2023-08-29T06:46:22.218Z,14.31
2023-08-29T06:47:20.339Z,14.30
2023-08-29T06:48:20.485Z,14.34
2023-08-29T06:49:21.686Z,14.31
2023-08-29T06:50:21.792Z,14.34
2023-08-29T06:51:21.931Z,14.35
2023-08-29T06:52:20.122Z,14.31
2023-08-29T06:53:20.266Z,14.31
2023-08-29T06:54:20.464Z,14.31
2023-08-29T06:55:21.636Z,14.34
2023-08-29T06:56:21.814Z,14.35
2023-08-29T06:57:21.035Z,14.35
2023-08-29T06:58:20.161Z,14.34
2023-08-29T06:59:21.274Z,14.38
2023-08-29T07:00:21.472Z,14.36
2023-08-29T07:01:20.683Z,14.41
2023-08-29T07:02:20.839Z,14.39
2023-08-29T07:03:21.048Z,14.38
2023-08-29T07:04:20.973Z,14.41
2023-08-29T07:05:21.338Z,14.44
2023-08-29T07:06:21.511Z,14.44
2023-08-29T07:07:20.713Z,14.41
2023-08-29T07:08:21.837Z,14.42
2023-08-29T07:09:20.970Z,14.41
2023-08-29T07:10:20.210Z,14.42
2023-08-29T07:11:20.349Z,14.41
2023-08-29T07:12:21.785Z,14.41
2023-08-29T07:13:21.623Z,14.41
2023-08-29T07:14:19.809Z,14.38
2023-08-29T07:15:20.932Z,14.39
2023-08-29T07:16:20.215Z,14.42
2023-08-29T07:17:20.359Z,14.42
2023-08-29T07:18:21.474Z,14.39
2023-08-29T07:19:20.659Z,14.42
2023-08-29T07:20:19.799Z,14.41
2023-08-29T07:21:19.987Z,14.39
2023-08-29T07:22:24.126Z,14.39
2023-08-29T07:23:21.298Z,14.39
2023-08-29T07:24:21.507Z,14.41
2023-08-29T07:25:19.652Z,14.42
2023-08-29T07:26:19.840Z,14.39
2023-08-29T07:27:21.020Z,14.39
2023-08-29T07:28:20.224Z,14.39
2023-08-29T07:29:21.312Z,14.36
2023-08-29T07:30:21.522Z,14.34
2023-08-29T07:31:20.828Z,14.38
2023-08-29T07:32:20.256Z,14.39
2023-08-29T07:33:20.828Z,14.41
2023-08-29T07:34:20.233Z,14.44
2023-08-29T07:35:20.408Z,14.44
2023-08-29T07:36:19.572Z,14.41
2023-08-29T07:37:19.828Z,14.39
2023-08-29T07:38:20.011Z,14.41
2023-08-29T07:39:21.145Z,14.41
2023-08-29T07:40:20.384Z,14.39
2023-08-29T07:41:19.513Z,14.42
2023-08-29T07:42:19.700Z,14.42
2023-08-29T07:43:19.946Z,14.45
2023-08-29T07:44:21.054Z,14.46
2023-08-29T07:45:21.242Z,14.46
2023-08-29T07:46:19.505Z,14.45
2023-08-29T07:47:19.596Z,14.46
2023-08-29T07:48:19.793Z,14.48
2023-08-29T07:49:20.969Z,14.48
2023-08-29T07:50:20.204Z,14.53
2023-08-29T07:51:19.341Z,14.53
2023-08-29T07:52:19.443Z,14.52
2023-08-29T07:53:19.626Z,14.52
2023-08-29T07:54:19.814Z,14.54
2023-08-29T07:55:20.036Z,14.54
2023-08-29T07:56:20.164Z,14.54
2023-08-29T07:57:19.289Z,14.56
2023-08-29T07:58:21.429Z,14.57
2023-08-29T07:59:19.668Z,14.59
2023-08-29T08:00:19.875Z,14.60
2023-08-29T08:01:20.139Z,14.63
2023-08-29T08:02:20.236Z,14.61
2023-08-29T08:03:19.361Z,14.66
2023-08-29T08:04:19.514Z,14.69
2023-08-29T08:05:20.746Z,14.71
2023-08-29T08:06:19.897Z,14.72
2023-08-29T08:07:20.069Z,14.69
2023-08-29T08:08:19.217Z,14.72
2023-08-29T08:09:19.395Z,14.74
2023-08-29T08:10:20.624Z,14.75
2023-08-29T08:11:20.803Z,14.79
2023-08-29T08:12:19.943Z,14.75
2023-08-29T08:13:20.082Z,14.78
2023-08-29T08:14:19.195Z,14.79
2023-08-29T08:15:19.376Z,14.83
2023-08-29T08:16:19.556Z,14.85
2023-08-29T08:17:19.717Z,14.83
2023-08-29T08:18:19.902Z,14.85
2023-08-29T08:19:19.685Z,14.91
2023-08-29T08:20:21.178Z,14.91
2023-08-29T08:21:19.322Z,14.93
2023-08-29T08:22:19.476Z,14.98
2023-08-29T08:23:19.664Z,15.03
2023-08-29T08:24:19.807Z,15.03
2023-08-29T08:25:19.976Z,15.01
2023-08-29T08:26:19.116Z,15.05
2023-08-29T08:27:19.240Z,15.07
2023-08-29T08:28:19.411Z,15.09
2023-08-29T08:29:19.609Z,15.12
2023-08-29T08:30:19.742Z,15.15
2023-08-29T08:31:19.948Z,15.16
2023-08-29T08:32:19.023Z,15.15
2023-08-29T08:33:19.212Z,15.11
2023-08-29T08:34:19.318Z,15.09
2023-08-29T08:35:19.489Z,15.09
2023-08-29T08:36:19.651Z,15.05
2023-08-29T08:37:19.781Z,15.01
2023-08-29T08:38:18.872Z,15.04
2023-08-29T08:39:19.030Z,15.04
2023-08-29T08:40:19.188Z,15.05
2023-08-29T08:41:19.344Z,15.11
2023-08-29T08:42:19.580Z,15.11
2023-08-29T08:43:18.652Z,15.11
2023-08-29T08:44:18.797Z,15.09
2023-08-29T08:45:19.033Z,15.09
2023-08-29T08:46:19.100Z,15.12
2023-08-29T08:47:19.281Z,15.13
2023-08-29T08:48:19.444Z,15.15
2023-08-29T08:49:19.572Z,15.18
2023-08-29T08:50:19.709Z,15.18
2023-08-29T08:51:18.892Z,15.22
2023-08-29T08:52:19.025Z,15.25
2023-08-29T08:53:19.162Z,15.30
2023-08-29T08:54:19.355Z,15.37
2023-08-29T08:55:20.572Z,15.38
2023-08-29T08:56:18.601Z,15.34
2023-08-29T08:57:18.753Z,15.37
2023-08-29T08:58:19.939Z,15.35
2023-08-29T08:59:20.034Z,15.37
2023-08-29T09:00:19.308Z,15.37
2023-08-29T09:01:20.495Z,15.41
2023-08-29T09:02:18.948Z,15.43
2023-08-29T09:03:19.739Z,15.46
2023-08-29T09:04:18.994Z,15.49
2023-08-29T09:05:19.042Z,15.53
2023-08-29T09:06:19.232Z,15.58
2023-08-29T09:07:19.368Z,15.60
2023-08-29T09:08:18.465Z,15.59
2023-08-29T09:09:18.608Z,15.56
2023-08-29T09:10:18.782Z,15.56
2023-08-29T09:11:19.895Z,15.58
2023-08-29T09:12:19.146Z,15.62
2023-08-29T09:13:20.145Z,15.66
2023-08-29T09:14:19.266Z,15.68
2023-08-29T09:15:18.593Z,15.71
2023-08-29T09:16:19.623Z,15.70
2023-08-29T09:17:19.431Z,15.71
2023-08-29T09:18:18.895Z,15.74
2023-08-29T09:19:20.016Z,15.76
2023-08-29T09:20:19.124Z,15.77
2023-08-29T09:21:19.430Z,15.78
2023-08-29T09:22:19.574Z,15.85
2023-08-29T09:23:19.670Z,15.86
2023-08-29T09:24:18.794Z,15.89
2023-08-29T09:25:18.965Z,15.91
2023-08-29T09:26:19.144Z,15.88
2023-08-29T09:27:18.259Z,15.88
2023-08-29T09:28:19.435Z,15.89
2023-08-29T09:29:18.612Z,15.89
2023-08-29T09:30:18.761Z,15.92
2023-08-29T09:31:18.972Z,15.91
2023-08-29T09:32:19.102Z,15.92
2023-08-29T09:33:18.246Z,15.95
2023-08-29T09:34:19.472Z,15.93
2023-08-29T09:35:18.643Z,15.95
2023-08-29T09:36:18.829Z,15.99
2023-08-29T09:37:19.085Z,15.99
2023-08-29T09:38:19.161Z,16.04
2023-08-29T09:39:18.403Z,16.06
2023-08-29T09:40:36.245Z,16.10
2023-08-29T09:41:19.827Z,16.16
2023-08-29T09:42:18.931Z,16.16
2023-08-29T09:43:18.214Z,16.18
2023-08-29T09:44:18.417Z,16.25
2023-08-29T09:45:18.552Z,16.23
2023-08-29T09:46:18.763Z,16.23
2023-08-29T09:47:19.891Z,16.23
2023-08-29T09:48:18.115Z,16.27
2023-08-29T09:49:18.215Z,16.27
2023-08-29T09:50:18.448Z,16.27
2023-08-29T09:51:18.632Z,16.30
2023-08-29T09:52:18.739Z,16.29
2023-08-29T09:53:18.526Z,16.29
2023-08-29T09:54:18.058Z,16.29
2023-08-29T09:55:18.191Z,16.32
2023-08-29T09:56:18.408Z,16.33
2023-08-29T09:57:19.483Z,16.36
2023-08-29T09:58:18.677Z,16.41
2023-08-29T09:59:17.812Z,16.42
2023-08-29T10:00:18.990Z,16.42
2023-08-29T10:01:19.179Z,16.47
2023-08-29T10:02:18.307Z,16.48
2023-08-29T10:03:18.381Z,16.48
2023-08-29T10:04:18.564Z,16.51
2023-08-29T10:05:17.661Z,16.51
2023-08-29T10:06:18.372Z,16.57
2023-08-29T10:07:18.997Z,16.52
2023-08-29T10:08:18.118Z,16.52
2023-08-29T10:09:18.283Z,16.52
2023-08-29T10:10:18.429Z,16.52
2023-08-29T10:11:17.550Z,16.52
2023-08-29T10:12:17.752Z,16.54
2023-08-29T10:13:17.848Z,16.54
2023-08-29T10:14:18.006Z,16.57
2023-08-29T10:15:19.081Z,16.62
2023-08-29T10:16:18.321Z,16.59
2023-08-29T10:17:31.200Z,16.62
2023-08-29T10:18:18.598Z,16.63
2023-08-29T10:19:18.601Z,16.67
2023-08-29T10:20:18.829Z,16.73
2023-08-29T10:21:17.943Z,16.82
2023-08-29T10:22:18.120Z,16.85
2023-08-29T10:23:18.192Z,16.87
2023-08-29T10:24:17.315Z,16.88
2023-08-29T10:25:17.463Z,16.90
2023-08-29T10:26:17.557Z,16.91
2023-08-29T10:27:17.666Z,16.91
2023-08-29T10:28:19.037Z,16.96
2023-08-29T10:29:17.895Z,17.02
2023-08-29T10:30:18.064Z,17.05
2023-08-29T10:31:18.171Z,17.03
2023-08-29T10:32:18.259Z,17.03
2023-08-29T10:33:17.383Z,16.99
2023-08-29T10:34:17.487Z,16.99
2023-08-29T10:35:18.706Z,17.00
2023-08-29T10:36:18.745Z,17.05
2023-08-29T10:37:17.873Z,17.09
2023-08-29T10:38:17.999Z,17.10
2023-08-29T10:39:17.078Z,17.05
2023-08-29T10:40:17.213Z,17.06
2023-08-29T10:41:17.667Z,17.05
2023-08-29T10:42:17.516Z,17.03
2023-08-29T10:43:17.639Z,17.05
2023-08-29T10:44:17.784Z,17.00
2023-08-29T10:45:18.908Z,17.05
2023-08-29T10:46:17.102Z,17.10
2023-08-29T10:47:18.299Z,17.14
2023-08-29T10:48:17.403Z,17.20
2023-08-29T10:49:17.485Z,17.25
2023-08-29T10:50:17.648Z,17.25
2023-08-29T10:51:17.813Z,17.30
2023-08-29T10:52:16.910Z,17.36
2023-08-29T10:53:17.643Z,17.38
2023-08-29T10:54:17.226Z,17.47
2023-08-29T10:55:17.342Z,17.49
2023-08-29T10:56:18.484Z,17.49
2023-08-29T10:57:18.575Z,17.53
2023-08-29T10:58:18.714Z,17.55
2023-08-29T10:59:16.977Z,17.63
2023-08-29T11:00:16.968Z,17.65
2023-08-29T11:01:17.181Z,17.74
2023-08-29T11:02:17.279Z,17.77
2023-08-29T11:03:17.454Z,17.83
2023-08-29T11:04:17.587Z,17.87
2023-08-29T11:05:17.739Z,17.96
2023-08-29T11:06:17.082Z,17.99
2023-08-29T11:07:16.893Z,18.04
2023-08-29T11:08:17.039Z,18.07
2023-08-29T11:09:17.169Z,18.02
2023-08-29T11:10:17.325Z,18.05
2023-08-29T11:11:18.158Z,17.99
2023-08-29T11:12:17.591Z,17.98
2023-08-29T11:13:16.708Z,17.99
2023-08-29T11:14:16.858Z,17.92
2023-08-29T11:15:17.303Z,17.92
2023-08-29T11:16:17.245Z,17.96
2023-08-29T11:17:17.372Z,18.01
2023-08-29T11:18:18.426Z,18.07
2023-08-29T11:19:16.588Z,18.11
2023-08-29T11:20:16.728Z,18.16
2023-08-29T11:21:18.849Z,18.17
2023-08-29T11:22:17.023Z,18.28
2023-08-29T11:23:17.472Z,18.31
2023-08-29T11:24:17.668Z,18.29
2023-08-29T11:25:17.483Z,18.34
2023-08-29T11:26:17.619Z,18.41
2023-08-29T11:27:17.037Z,18.44
2023-08-29T11:28:16.885Z,18.49
2023-08-29T11:29:17.077Z,18.56
2023-08-29T11:30:28.099Z,18.62
2023-08-29T11:31:18.322Z,18.65
2023-08-29T11:32:16.379Z,18.74
2023-08-29T11:33:16.560Z,18.76
2023-08-29T11:34:16.702Z,18.87
2023-08-29T11:35:17.521Z,18.89
2023-08-29T11:36:17.014Z,18.90
2023-08-29T11:37:17.114Z,18.93
2023-08-29T11:38:17.411Z,18.93
2023-08-29T11:39:16.379Z,18.79
2023-08-29T11:40:18.794Z,18.75
2023-08-29T11:41:31.722Z,18.75
2023-08-29T11:43:14.929Z,18.68
2023-08-29T11:44:12.486Z,18.60
2023-08-29T11:44:31.195Z,18.65
2023-08-29T11:45:45.319Z,18.69
2023-08-29T11:46:17.267Z,18.76
2023-08-29T11:47:16.387Z,18.74
2023-08-29T11:48:16.519Z,18.83
2023-08-29T11:49:16.686Z,18.79
2023-08-29T11:50:16.762Z,18.87
2023-08-29T11:51:17.575Z,18.93
2023-08-29T11:52:17.984Z,18.96
2023-08-29T11:53:16.132Z,19.01
2023-08-29T11:54:17.250Z,19.06
2023-08-29T11:55:17.074Z,19.02
2023-08-29T11:56:16.495Z,19.09
2023-08-29T11:57:17.278Z,19.07
2023-08-29T11:58:16.737Z,19.12
2023-08-29T11:59:17.817Z,19.16
2023-08-29T12:00:16.976Z,19.12
2023-08-29T12:01:16.129Z,19.07
2023-08-29T12:02:19.070Z,18.99
2023-08-29T12:03:16.630Z,19.05
2023-08-29T12:04:16.490Z,19.06
2023-08-29T12:05:16.545Z,19.07
2023-08-29T12:06:16.638Z,19.05
2023-08-29T12:07:16.782Z,19.02
2023-08-29T12:08:17.203Z,18.99
2023-08-29T12:09:16.024Z,19.06
2023-08-29T12:10:16.152Z,19.09
2023-08-29T12:11:16.279Z,19.02
2023-08-29T12:12:16.397Z,18.99
2023-08-29T12:13:16.568Z,18.96
2023-08-29T12:14:17.328Z,18.86
2023-08-29T12:15:24.250Z,18.82
2023-08-29T12:16:16.809Z,18.83
2023-08-29T12:17:15.946Z,18.87
2023-08-29T12:18:16.098Z,18.91
2023-08-29T12:19:16.147Z,18.97
2023-08-29T12:20:16.265Z,18.96
2023-08-29T12:21:16.381Z,19.02
2023-08-29T12:22:16.527Z,19.06
2023-08-29T12:23:16.704Z,19.07
2023-08-29T12:24:15.750Z,19.06
2023-08-29T12:25:15.861Z,19.10
2023-08-29T12:26:16.128Z,19.13
2023-08-29T12:27:16.140Z,19.17
2023-08-29T12:28:16.301Z,19.25
2023-08-29T12:29:17.359Z,19.27
2023-08-29T12:30:17.456Z,19.28
2023-08-29T12:31:15.671Z,19.35
2023-08-29T12:32:15.718Z,19.40
2023-08-29T12:33:17.430Z,19.40
2023-08-29T12:34:15.986Z,19.35
2023-08-29T12:35:16.113Z,19.40
2023-08-29T12:36:16.235Z,19.45
2023-08-29T12:37:16.325Z,19.45
2023-08-29T12:38:16.469Z,19.42
2023-08-29T12:39:17.336Z,19.43
2023-08-29T12:40:15.819Z,19.46
2023-08-29T12:41:15.821Z,19.50
2023-08-29T12:42:16.864Z,19.61
2023-08-29T12:43:16.028Z,19.71
2023-08-29T12:44:16.162Z,19.87
2023-08-29T12:45:16.359Z,19.98
2023-08-29T12:46:16.730Z,20.02
2023-08-29T12:47:15.458Z,20.10
2023-08-29T12:48:15.638Z,20.08
2023-08-29T12:49:16.628Z,20.07
2023-08-29T12:50:16.165Z,20.20
2023-08-29T12:51:18.848Z,20.27
2023-08-29T12:52:17.057Z,20.31